Time;durP1;ratioP1;P1;durP2;ratioP2;P2;SDS_P1;SDS_P2;PMS_P1;PMS_P2;Temp;Humidity;BMP_temperature;BMP_pressure;BME280_temperature;BME280_humidity;BME280_pressure;Samples;Min_cycle;Max_cycle;Signal;HPM_P1;HPM_P2
2023/05/01 00:00:51;;;;;;;492.77;144.93;;;;;;;;;;5051623;28;20398;-51
2023/05/01 00:03:16;;;;;;;491.17;146.93;;;;;;;;;;5051572;28;20040;-54
2023/05/01 00:05:42;;;;;;;498.80;146.10;;;;;;;;;;5051331;28;20025;-55
2023/05/01 00:08:07;;;;;;;492.33;147.63;;;;;;;;;;5051465;28;20021;-52
2023/05/01 00:10:35;;;;;;;490.27;145.98;;;;;;;;;;5051357;28;20025;-55
2023/05/01 00:13:00;;;;;;;500.38;141.57;;;;;;;;;;5051513;28;20079;-53
2023/05/01 00:15:25;;;;;;;489.98;140.27;;;;;;;;;;5051369;28;20040;-56
2023/05/01 00:17:52;;;;;;;456.52;140.63;;;;;;;;;;5051170;28;20078;-51
2023/05/01 00:20:18;;;;;;;490.55;142.98;;;;;;;;;;5050956;28;20449;-56
2023/05/01 00:22:43;;;;;;;498.15;141.55;;;;;;;;;;5050446;28;20037;-56
2023/05/01 00:25:09;;;;;;;489.55;135.30;;;;;;;;;;5049547;28;20316;-54
2023/05/01 00:27:34;;;;;;;498.55;142.75;;;;;;;;;;5051025;28;20021;-53
2023/05/01 00:30:00;;;;;;;509.63;144.38;;;;;;;;;;5050663;28;20037;-55
2023/05/01 00:32:25;;;;;;;500.98;137.80;;;;;;;;;;5050068;28;20390;-53
2023/05/01 00:34:51;;;;;;;497.08;143.45;;;;;;;;;;5050786;28;20473;-56
2023/05/01 00:37:16;;;;;;;503.80;140.82;;;;;;;;;;5051108;28;20099;-49
2023/05/01 00:39:41;;;;;;;490.05;135.50;;;;;;;;;;5050726;28;20556;-54
2023/05/01 00:42:07;;;;;;;501.17;140.25;;;;;;;;;;5050861;28;20033;-54
2023/05/01 00:44:32;;;;;;;494.27;140.25;;;;;;;;;;5050426;28;20021;-55
2023/05/01 00:46:59;;;;;;;491.42;138.20;;;;;;;;;;5050908;28;20028;-55
2023/05/01 00:49:25;;;;;;;498.65;139.95;;;;;;;;;;5050893;28;20374;-55
2023/05/01 00:51:52;;;;;;;502.58;140.30;;;;;;;;;;5050433;28;20033;-52
2023/05/01 00:54:18;;;;;;;479.77;133.27;;;;;;;;;;5050630;28;20036;-52
2023/05/01 00:56:44;;;;;;;486.20;137.00;;;;;;;;;;5050781;28;20458;-55
2023/05/01 00:59:10;;;;;;;498.17;139.98;;;;;;;;;;5050656;28;20120;-56
2023/05/01 01:01:35;;;;;;;497.80;141.02;;;;;;;;;;5049295;28;20171;-56
2023/05/01 01:04:00;;;;;;;491.65;137.15;;;;;;;;;;5050281;28;20032;-55
2023/05/01 01:06:26;;;;;;;500.85;138.95;;;;;;;;;;5049535;28;20038;-56
2023/05/01 01:09:06;;;;;;;490.45;134.48;;;;;;;;;;5050209;28;20104;-55
2023/05/01 01:11:32;;;;;;;488.63;135.95;;;;;;;;;;5050419;28;20059;-57
2023/05/01 01:14:02;;;;;;;486.48;131.30;;;;;;;;;;5050520;28;20122;-53
2023/05/01 01:16:47;;;;;;;485.63;138.13;;;;;;;;;;5049828;28;20108;-57
2023/05/01 01:19:30;;;;;;;489.27;133.18;;;;;;;;;;5050079;28;20029;-52
2023/05/01 01:22:02;;;;;;;489.80;134.20;;;;;;;;;;5049971;28;20450;-55
2023/05/01 01:24:27;;;;;;;502.45;136.38;;;;;;;;;;5050012;28;20035;-53
2023/05/01 01:27:11;;;;;;;501.30;138.10;;;;;;;;;;5049100;28;20025;-56
2023/05/01 01:29:43;;;;;;;497.15;135.63;;;;;;;;;;5049329;28;20031;-55
2023/05/01 01:32:14;;;;;;;496.35;134.35;;;;;;;;;;5048576;28;20537;-56
2023/05/01 01:34:43;;;;;;;487.33;131.23;;;;;;;;;;5049382;28;20015;-56
2023/05/01 01:37:08;;;;;;;;;;;;;;;;;;5049770;28;20029;-54
2023/05/01 01:39:37;;;;;;;492.33;127.93;;;;;;;;;;5049049;28;19905;-53
2023/05/01 01:42:08;;;;;;;504.80;137.05;;;;;;;;;;5048518;28;20025;-54
2023/05/01 01:44:37;;;;;;;487.08;130.80;;;;;;;;;;5048916;28;20491;-54
2023/05/01 01:47:05;;;;;;;496.80;130.40;;;;;;;;;;5048901;28;20029;-55
2023/05/01 01:49:31;;;;;;;482.45;127.15;;;;;;;;;;5048773;28;20040;-53
2023/05/01 01:51:57;;;;;;;505.23;138.07;;;;;;;;;;5049136;28;20056;-53
2023/05/01 01:54:25;;;;;;;468.88;134.77;;;;;;;;;;5049625;28;20390;-55
2023/05/01 01:56:51;;;;;;;501.90;137.02;;;;;;;;;;5049180;28;20021;-56
2023/05/01 01:59:17;;;;;;;495.77;130.93;;;;;;;;;;5049148;28;20032;-54
2023/05/01 02:01:43;;;;;;;488.00;133.27;;;;;;;;;;5049159;28;20020;-56
2023/05/01 02:04:10;;;;;;;489.73;130.23;;;;;;;;;;5048825;28;20048;-54
2023/05/01 02:06:36;;;;;;;500.65;134.07;;;;;;;;;;5048771;28;20031;-53
2023/05/01 02:09:03;;;;;;;511.65;135.02;;;;;;;;;;5048917;28;20059;-55
2023/05/01 02:11:30;;;;;;;513.38;137.50;;;;;;;;;;5062974;28;20060;-57
2023/05/01 02:13:56;;;;;;;511.85;135.55;;;;;;;;;;5049027;28;20154;-56
2023/05/01 02:16:24;;;;;;;500.02;130.70;;;;;;;;;;5048667;28;20355;-56
2023/05/01 02:18:50;;;;;;;513.35;135.68;;;;;;;;;;5046077;28;20742;-56
2023/05/01 02:21:16;;;;;;;494.00;131.85;;;;;;;;;;5048620;28;20017;-53
2023/05/01 02:23:42;;;;;;;498.58;131.50;;;;;;;;;;5048087;28;20037;-54
2023/05/01 02:26:11;;;;;;;513.20;136.98;;;;;;;;;;5048163;28;20432;-56
2023/05/01 02:28:40;;;;;;;501.73;129.98;;;;;;;;;;5048310;28;20727;-55
2023/05/01 02:31:05;;;;;;;486.45;130.65;;;;;;;;;;5048768;28;20128;-53
2023/05/01 02:33:31;;;;;;;496.67;128.20;;;;;;;;;;5048398;28;20151;-55
2023/05/01 02:35:56;;;;;;;508.65;133.48;;;;;;;;;;5048223;28;20119;-55
2023/05/01 02:38:21;;;;;;;498.42;131.50;;;;;;;;;;5047818;28;20039;-52
2023/05/01 02:40:49;;;;;;;503.42;129.77;;;;;;;;;;5047980;28;20154;-56
2023/05/01 02:43:17;;;;;;;493.55;131.55;;;;;;;;;;5048110;28;20428;-56
2023/05/01 02:45:43;;;;;;;500.83;128.70;;;;;;;;;;5062593;28;20478;-51
2023/05/01 02:48:09;;;;;;;496.88;132.45;;;;;;;;;;5048171;28;20129;-54
2023/05/01 02:50:36;;;;;;;498.30;131.13;;;;;;;;;;5047258;28;20108;-54
2023/05/01 02:53:02;;;;;;;516.70;132.50;;;;;;;;;;5047895;28;20107;-54
2023/05/01 02:55:28;;;;;;;516.70;133.57;;;;;;;;;;5047975;28;20092;-55
2023/05/01 02:57:56;;;;;;;508.33;132.38;;;;;;;;;;5048332;28;20373;-56
2023/05/01 03:00:22;;;;;;;492.13;129.02;;;;;;;;;;5048845;28;20422;-55
2023/05/01 03:02:47;;;;;;;490.25;128.80;;;;;;;;;;5048763;28;20075;-51
2023/05/01 03:05:13;;;;;;;487.38;124.75;;;;;;;;;;5049062;28;20478;-54
2023/05/01 03:07:38;;;;;;;496.27;127.78;;;;;;;;;;5048790;28;20536;-56
2023/05/01 03:10:04;;;;;;;480.00;125.22;;;;;;;;;;5048744;28;20245;-55
2023/05/01 03:12:30;;;;;;;489.23;127.57;;;;;;;;;;5048471;28;20078;-55
2023/05/01 03:14:55;;;;;;;493.85;132.02;;;;;;;;;;5048854;28;20036;-56
2023/05/01 03:17:21;;;;;;;499.02;129.82;;;;;;;;;;5048864;28;20505;-56
2023/05/01 03:19:47;;;;;;;502.00;128.70;;;;;;;;;;5048742;28;20083;-52
2023/05/01 03:22:13;;;;;;;493.77;130.80;;;;;;;;;;5048379;28;20041;-56
2023/05/01 03:24:38;;;;;;;495.17;127.22;;;;;;;;;;5048700;28;20029;-56
2023/05/01 03:27:04;;;;;;;501.83;133.48;;;;;;;;;;5048390;28;20083;-54
2023/05/01 03:29:30;;;;;;;492.73;128.57;;;;;;;;;;5048852;28;20525;-53
2023/05/01 03:31:56;;;;;;;500.60;131.80;;;;;;;;;;5051985;28;20032;-56
2023/05/01 03:34:22;;;;;;;497.52;129.77;;;;;;;;;;5052110;28;20040;-52
2023/05/01 03:36:47;;;;;;;492.50;128.65;;;;;;;;;;5051486;28;20029;-54
2023/05/01 03:39:12;;;;;;;484.80;124.85;;;;;;;;;;5051653;28;20447;-54
2023/05/01 03:41:38;;;;;;;491.05;129.77;;;;;;;;;;5051029;28;20033;-55
2023/05/01 03:44:03;;;;;;;483.13;123.20;;;;;;;;;;5050646;28;20074;-54
2023/05/01 03:46:29;;;;;;;498.42;127.38;;;;;;;;;;5051136;28;20025;-53
2023/05/01 03:48:54;;;;;;;496.98;126.03;;;;;;;;;;5050979;28;20036;-52
2023/05/01 03:51:19;;;;;;;486.27;123.38;;;;;;;;;;5048389;28;20435;-51
2023/05/01 03:53:45;;;;;;;495.70;128.65;;;;;;;;;;5050674;28;20036;-55
2023/05/01 03:56:10;;;;;;;497.65;127.53;;;;;;;;;;5050445;28;20021;-52
2023/05/01 03:58:36;;;;;;;482.58;124.53;;;;;;;;;;5050846;28;20033;-52
2023/05/01 04:01:02;;;;;;;471.33;124.03;;;;;;;;;;5050986;28;20039;-53
2023/05/01 04:03:27;;;;;;;485.75;124.65;;;;;;;;;;5050563;28;20033;-53
2023/05/01 04:05:53;;;;;;;471.67;123.15;;;;;;;;;;5051128;28;20052;-54
2023/05/01 04:08:18;;;;;;;480.33;124.90;;;;;;;;;;5051537;28;20025;-52
2023/05/01 04:10:43;;;;;;;465.13;127.45;;;;;;;;;;5051523;28;20044;-57
2023/05/01 04:13:09;;;;;;;489.25;126.80;;;;;;;;;;5051750;28;20563;-54
2023/05/01 04:15:35;;;;;;;479.52;131.23;;;;;;;;;;5051235;28;20032;-55
2023/05/01 04:18:00;;;;;;;484.33;135.13;;;;;;;;;;5051369;28;20021;-55
2023/05/01 04:20:25;;;;;;;514.35;141.10;;;;;;;;;;5051298;28;20451;-55
2023/05/01 04:22:51;;;;;;;512.95;146.70;;;;;;;;;;5051176;28;20608;-55
2023/05/01 04:25:16;;;;;;;501.00;147.10;;;;;;;;;;5050851;28;20025;-52
2023/05/01 04:27:41;;;;;;;482.20;144.90;;;;;;;;;;5050576;28;20033;-56
2023/05/01 04:30:07;;;;;;;499.23;149.88;;;;;;;;;;5050815;28;20025;-54
2023/05/01 04:32:34;;;;;;;499.17;153.77;;;;;;;;;;5050632;28;20103;-56
2023/05/01 04:34:59;;;;;;;486.35;151.70;;;;;;;;;;5051238;28;20056;-54
2023/05/01 04:37:24;;;;;;;507.70;159.00;;;;;;;;;;5051007;28;20064;-53
2023/05/01 04:39:50;;;;;;;507.80;163.32;;;;;;;;;;5050281;28;20029;-57
2023/05/01 04:42:15;;;;;;;506.92;169.65;;;;;;;;;;5050474;28;20044;-57
2023/05/01 04:44:40;;;;;;;498.70;168.18;;;;;;;;;;5050953;28;20043;-51
2023/05/01 04:47:06;;;;;;;492.17;172.70;;;;;;;;;;5050603;28;20071;-56
2023/05/01 04:49:31;;;;;;;497.50;181.85;;;;;;;;;;5050744;28;20028;-54
2023/05/01 04:51:56;;;;;;;517.70;191.00;;;;;;;;;;5050489;28;20457;-51
2023/05/01 04:54:23;;;;;;;498.17;198.93;;;;;;;;;;5050537;28;20112;-55
2023/05/01 05:08:50;;;;;;;546.55;364.98;;;;;;;;;;5087176;28;20413;-58
2023/05/01 05:11:16;;;;;;;546.53;326.38;;;;;;;;;;5066770;28;20064;-57
2023/05/01 05:13:41;;;;;;;538.17;333.75;;;;;;;;;;5066215;28;20147;-57
2023/05/01 05:16:07;;;;;;;538.75;328.75;;;;;;;;;;5066624;28;20525;-56
2023/05/01 05:18:32;;;;;;;525.97;332.88;;;;;;;;;;5066824;28;20029;-54
2023/05/01 05:20:58;;;;;;;545.58;347.13;;;;;;;;;;5066816;28;20021;-57
2023/05/01 05:23:23;;;;;;;539.35;343.05;;;;;;;;;;5066815;28;20070;-56
2023/05/01 05:25:49;;;;;;;545.50;360.50;;;;;;;;;;5066788;28;20423;-58
2023/05/01 05:28:14;;;;;;;543.22;361.48;;;;;;;;;;5066667;28;20025;-55
2023/05/01 05:30:39;;;;;;;544.38;370.95;;;;;;;;;;5066513;28;20090;-54
2023/05/01 05:33:07;;;;;;;526.95;375.48;;;;;;;;;;5066434;28;20028;-59
2023/05/01 05:35:32;;;;;;;536.05;369.80;;;;;;;;;;5066583;28;20400;-58
2023/05/01 05:37:58;;;;;;;538.10;372.33;;;;;;;;;;5066778;28;20033;-58
2023/05/01 05:40:23;;;;;;;538.67;387.90;;;;;;;;;;5066230;28;20775;-54
2023/05/01 05:42:48;;;;;;;552.65;393.35;;;;;;;;;;5066522;28;20028;-57
2023/05/01 05:45:14;;;;;;;533.42;391.73;;;;;;;;;;5066610;28;20024;-58
2023/05/01 05:47:39;;;;;;;536.75;391.65;;;;;;;;;;5066394;28;20048;-56
2023/05/01 05:50:06;;;;;;;549.08;405.73;;;;;;;;;;5066257;28;20355;-57
2023/05/01 05:52:31;;;;;;;540.92;396.08;;;;;;;;;;5066047;28;20033;-52
2023/05/01 05:54:56;;;;;;;537.00;395.45;;;;;;;;;;5066022;28;20029;-57
2023/05/01 05:57:22;;;;;;;532.55;404.33;;;;;;;;;;5068765;23;20545;-59
2023/05/01 05:59:47;;;;;;;537.38;396.15;;;;;;;;;;5045868;28;20041;-53
2023/05/01 06:02:12;;;;;;;532.05;397.55;;;;;;;;;;5045501;28;20021;-55
2023/05/01 06:04:37;;;;;;;538.20;397.80;;;;;;;;;;5046116;28;20023;-60
2023/05/01 06:07:05;;;;;;;544.42;394.58;;;;;;;;;;5046174;28;20029;-59
2023/05/01 06:09:30;;;;;;;555.95;392.80;;;;;;;;;;4982840;28;20088;-55
2023/05/01 06:11:55;;;;;;;557.38;399.42;;;;;;;;;;5032420;28;20025;-60
2023/05/01 06:14:21;;;;;;;537.78;397.00;;;;;;;;;;5032001;28;20421;-59
2023/05/01 06:16:46;;;;;;;514.58;402.70;;;;;;;;;;5032559;28;20071;-51
2023/05/01 06:19:11;;;;;;;541.42;420.25;;;;;;;;;;5032787;28;20034;-57
2023/05/01 06:21:37;;;;;;;548.78;430.17;;;;;;;;;;5032371;28;20021;-59
2023/05/01 06:24:02;;;;;;;530.83;434.45;;;;;;;;;;5032643;28;20473;-59
2023/05/01 06:26:27;;;;;;;535.15;452.92;;;;;;;;;;5032427;28;20033;-59
2023/05/01 06:28:55;;;;;;;551.20;461.67;;;;;;;;;;5032219;28;20470;-58
2023/05/01 06:31:21;;;;;;;564.55;456.13;;;;;;;;;;5031463;28;20064;-59
2023/05/01 06:33:46;;;;;;;565.03;450.15;;;;;;;;;;5032295;28;20057;-53
2023/05/01 06:36:12;;;;;;;563.55;448.88;;;;;;;;;;5032119;28;20382;-59
2023/05/01 06:38:37;;;;;;;549.10;448.35;;;;;;;;;;5032410;28;20083;-49
2023/05/01 06:41:06;;;;;;;551.38;438.85;;;;;;;;;;5031950;28;20099;-57
2023/05/01 06:43:31;;;;;;;559.13;434.60;;;;;;;;;;4996936;28;20037;-59
2023/05/01 06:45:56;;;;;;;530.38;434.40;;;;;;;;;;5031976;28;20032;-57
2023/05/01 06:48:22;;;;;;;562.47;447.75;;;;;;;;;;5031916;28;20025;-59
2023/05/01 06:50:47;;;;;;;540.00;443.73;;;;;;;;;;5031700;28;20497;-55
2023/05/01 06:53:12;;;;;;;533.80;458.45;;;;;;;;;;5031749;28;20477;-60
2023/05/01 06:55:38;;;;;;;550.95;457.98;;;;;;;;;;5031599;28;20021;-59
2023/05/01 06:58:04;;;;;;;532.97;469.33;;;;;;;;;;5030998;28;20052;-56
2023/05/01 07:00:29;;;;;;;533.10;469.70;;;;;;;;;;5031489;28;20061;-52
2023/05/01 07:02:54;;;;;;;550.65;467.95;;;;;;;;;;5031889;28;20536;-59
2023/05/01 07:05:20;;;;;;;540.97;478.85;;;;;;;;;;5014303;28;20378;-59
2023/05/01 07:07:45;;;;;;;547.13;465.85;;;;;;;;;;5035890;28;20084;-57
2023/05/01 07:10:11;;;;;;;535.85;469.95;;;;;;;;;;5035962;28;20033;-60
2023/05/01 07:12:36;;;;;;;547.67;488.17;;;;;;;;;;5036117;28;20029;-59
2023/05/01 07:15:01;;;;;;;542.42;481.55;;;;;;;;;;5035858;28;20247;-55
2023/05/01 07:17:28;;;;;;;556.10;496.00;;;;;;;;;;5036107;28;20068;-60
2023/05/01 07:19:53;;;;;;;563.03;504.17;;;;;;;;;;5033752;28;20048;-59
2023/05/01 07:22:18;;;;;;;567.58;496.30;;;;;;;;;;5035291;28;20037;-62
2023/05/01 07:24:44;;;;;;;559.05;499.23;;;;;;;;;;5035996;28;20029;-57
2023/05/01 07:27:09;;;;;;;548.67;489.27;;;;;;;;;;5036229;28;20044;-54
2023/05/01 07:29:38;;;;;;;556.13;492.10;;;;;;;;;;5035800;28;20370;-59
2023/05/01 07:32:05;;;;;;;566.88;509.02;;;;;;;;;;5016536;28;20033;-58
2023/05/01 07:45:06;;;;;;;691.17;628.15;;;;;;;;;;5086789;28;20211;-64
2023/05/01 07:47:32;;;;;;;661.40;599.60;;;;;;;;;;5066570;28;20075;-65
2023/05/01 07:49:57;;;;;;;639.88;578.90;;;;;;;;;;5067092;28;20509;-63
2023/05/01 07:52:23;;;;;;;639.47;579.15;;;;;;;;;;5066734;28;20025;-64
2023/05/01 07:54:49;;;;;;;632.67;572.40;;;;;;;;;;5066852;28;20025;-64
2023/05/01 07:57:15;;;;;;;631.75;570.15;;;;;;;;;;5066726;28;20028;-64
2023/05/01 07:59:40;;;;;;;645.65;584.53;;;;;;;;;;5066844;28;20028;-64
2023/05/01 08:02:06;;;;;;;643.70;581.88;;;;;;;;;;5066576;28;20027;-65
2023/05/01 08:04:31;;;;;;;646.53;585.17;;;;;;;;;;5066507;28;20058;-64
2023/05/01 08:06:56;;;;;;;645.35;582.88;;;;;;;;;;5066822;28;20052;-64
2023/05/01 08:09:22;;;;;;;634.80;573.75;;;;;;;;;;5066316;28;20051;-65
2023/05/01 08:11:47;;;;;;;640.13;583.10;;;;;;;;;;5066658;28;20013;-64
2023/05/01 08:14:12;;;;;;;648.13;587.30;;;;;;;;;;5066507;28;20282;-65
2023/05/01 08:16:37;;;;;;;648.63;587.43;;;;;;;;;;5066343;28;20059;-64
2023/05/01 08:19:03;;;;;;;667.10;605.17;;;;;;;;;;5066358;28;20238;-63
2023/05/01 08:21:28;;;;;;;675.45;613.88;;;;;;;;;;5066264;28;20532;-64
2023/05/01 08:23:54;;;;;;;677.72;616.30;;;;;;;;;;5066355;28;20017;-64
2023/05/01 08:26:20;;;;;;;691.17;630.17;;;;;;;;;;5066101;28;20048;-64
2023/05/01 08:28:45;;;;;;;697.25;634.42;;;;;;;;;;5066080;28;20021;-64
2023/05/01 08:31:10;;;;;;;704.10;640.83;;;;;;;;;;5066017;28;20116;-65
2023/05/01 08:33:36;;;;;;;715.47;654.17;;;;;;;;;;5065748;28;20435;-65
2023/05/01 08:36:01;;;;;;;716.95;654.33;;;;;;;;;;5065825;28;20024;-64
2023/05/01 08:38:26;;;;;;;714.83;651.22;;;;;;;;;;5065984;28;20423;-63
2023/05/01 08:40:52;;;;;;;721.80;659.43;;;;;;;;;;5065970;28;20021;-64
2023/05/01 08:43:18;;;;;;;717.67;656.17;;;;;;;;;;5065505;28;20416;-64
2023/05/01 08:45:45;;;;;;;717.13;654.65;;;;;;;;;;5054248;28;20099;-64
2023/05/01 08:48:11;;;;;;;715.47;654.30;;;;;;;;;;5052530;28;20025;-64
2023/05/01 08:50:38;;;;;;;723.47;661.30;;;;;;;;;;5052036;28;20021;-64
2023/05/01 08:53:04;;;;;;;710.80;648.33;;;;;;;;;;5052036;28;20226;-64
2023/05/01 08:55:31;;;;;;;723.55;662.63;;;;;;;;;;5052211;28;20071;-65
2023/05/01 08:57:57;;;;;;;712.38;652.78;;;;;;;;;;5052070;28;20481;-65
2023/05/01 09:00:23;;;;;;;732.15;671.08;;;;;;;;;;5051883;28;20017;-63
2023/05/01 09:02:49;;;;;;;729.05;666.72;;;;;;;;;;5051297;28;20470;-64
2023/05/01 09:05:16;;;;;;;723.80;663.35;;;;;;;;;;5051317;28;20056;-63
2023/05/01 09:07:41;;;;;;;723.80;660.80;;;;;;;;;;5051078;28;20482;-63
2023/05/01 09:10:06;;;;;;;723.22;661.13;;;;;;;;;;5051905;28;20028;-64
2023/05/01 09:12:34;;;;;;;719.47;659.05;;;;;;;;;;5051386;28;20438;-64
2023/05/01 09:15:00;;;;;;;720.50;659.85;;;;;;;;;;5050878;28;20088;-64
2023/05/01 09:17:26;;;;;;;722.08;660.78;;;;;;;;;;5050612;28;20021;-63
2023/05/01 09:19:51;;;;;;;716.60;657.17;;;;;;;;;;5032946;28;20021;-63
2023/05/01 09:22:17;;;;;;;724.67;664.88;;;;;;;;;;5050838;28;20025;-64
2023/05/01 09:24:43;;;;;;;709.58;649.58;;;;;;;;;;5050469;28;20021;-61
2023/05/01 09:27:08;;;;;;;718.20;657.85;;;;;;;;;;5032654;28;20115;-65
2023/05/01 09:29:41;;;;;;;715.45;655.30;;;;;;;;;;5050517;28;20432;-65
2023/05/01 09:32:12;;;;;;;709.85;650.60;;;;;;;;;;5050564;28;20021;-65
2023/05/01 09:34:37;;;;;;;706.47;647.08;;;;;;;;;;5049709;28;20056;-65
2023/05/01 09:37:03;;;;;;;710.45;650.30;;;;;;;;;;5031929;28;20017;-66
2023/05/01 09:39:28;;;;;;;704.63;644.33;;;;;;;;;;5050103;28;20493;-65
2023/05/01 09:41:54;;;;;;;719.83;658.87;;;;;;;;;;5049893;28;20052;-65
2023/05/01 09:44:19;;;;;;;722.05;659.78;;;;;;;;;;5048381;28;20642;-65
2023/05/01 09:46:45;;;;;;;725.40;663.42;;;;;;;;;;5031960;28;20051;-64
2023/05/01 09:49:10;;;;;;;725.97;663.70;;;;;;;;;;5049793;28;20025;-65
2023/05/01 09:51:35;;;;;;;721.30;659.90;;;;;;;;;;5050580;28;20254;-65
2023/05/01 09:54:01;;;;;;;725.08;663.30;;;;;;;;;;5050262;28;20304;-65
2023/05/01 09:56:28;;;;;;;731.95;671.30;;;;;;;;;;5051219;28;20021;-65
2023/05/01 09:58:54;;;;;;;728.63;668.33;;;;;;;;;;5050681;28;20474;-65
2023/05/01 10:01:36;;;;;;;728.95;667.88;;;;;;;;;;5050053;28;20028;-64
2023/05/01 10:04:02;;;;;;;715.03;656.50;;;;;;;;;;5049609;28;20032;-64
2023/05/01 10:06:27;;;;;;;715.35;656.33;;;;;;;;;;5049601;28;20029;-63
2023/05/01 10:08:53;;;;;;;725.70;665.53;;;;;;;;;;5049623;28;20044;-65
2023/05/01 10:11:18;;;;;;;706.75;648.58;;;;;;;;;;5050332;28;20016;-64
2023/05/01 10:13:44;;;;;;;715.13;655.65;;;;;;;;;;5032154;28;20552;-64
2023/05/01 10:16:26;;;;;;;713.20;655.35;;;;;;;;;;5050287;28;20025;-64
2023/05/01 10:18:53;;;;;;;703.78;649.33;;;;;;;;;;5050043;28;20031;-65
2023/05/01 10:21:18;;;;;;;713.58;656.67;;;;;;;;;;5050287;28;20024;-65
2023/05/01 10:23:44;;;;;;;691.13;638.20;;;;;;;;;;5050368;28;20033;-65
2023/05/01 10:26:12;;;;;;;694.63;642.22;;;;;;;;;;5014843;28;20036;-65
2023/05/01 10:28:38;;;;;;;711.28;654.78;;;;;;;;;;5050594;28;20032;-66
2023/05/01 10:31:04;;;;;;;718.95;661.72;;;;;;;;;;5050575;28;20025;-65
2023/05/01 10:33:29;;;;;;;719.95;660.55;;;;;;;;;;5050466;28;20033;-64
2023/05/01 10:35:56;;;;;;;699.00;644.17;;;;;;;;;;5050666;28;20024;-65
2023/05/01 10:38:24;;;;;;;664.33;616.03;;;;;;;;;;5050821;28;20601;-65
2023/05/01 10:40:50;;;;;;;716.08;658.25;;;;;;;;;;5050045;28;20029;-66
2023/05/01 10:43:28;;;;;;;718.80;660.20;;;;;;;;;;5048596;28;20565;-64
2023/05/01 10:46:20;;;;;;;722.90;661.92;;;;;;;;;;5048563;28;20024;-64
2023/05/01 10:48:45;;;;;;;715.30;656.78;;;;;;;;;;4950223;28;20391;-65
2023/05/01 10:51:10;;;;;;;700.30;647.23;;;;;;;;;;4951931;28;20042;-65
2023/05/01 10:53:36;;;;;;;699.50;645.20;;;;;;;;;;4950075;28;20285;-65
2023/05/01 10:56:04;;;;;;;676.20;626.97;;;;;;;;;;4949126;28;20060;-65
2023/05/01 10:58:52;;;;;;;645.35;599.83;;;;;;;;;;4933287;28;20038;-66
2023/05/01 11:01:27;;;;;;;704.55;648.65;;;;;;;;;;4948816;28;20432;-65
2023/05/01 11:04:16;;;;;;;663.25;614.35;;;;;;;;;;4949166;28;20477;-65
2023/05/01 11:07:04;;;;;;;685.65;633.47;;;;;;;;;;4929226;29;20035;-66
2023/05/01 11:09:37;;;;;;;691.35;638.92;;;;;;;;;;4929215;29;20027;-65
2023/05/01 11:12:03;;;;;;;701.83;644.38;;;;;;;;;;4929581;29;20120;-65
2023/05/01 11:14:48;;;;;;;721.38;662.45;;;;;;;;;;4929862;29;20167;-66
2023/05/01 11:17:33;;;;;;;722.17;660.95;;;;;;;;;;4929230;29;20047;-66
2023/05/01 11:19:58;;;;;;;712.17;655.28;;;;;;;;;;4929355;29;20043;-66
2023/05/01 11:22:24;;;;;;;714.90;655.70;;;;;;;;;;4929573;29;20042;-66
2023/05/01 11:24:50;;;;;;;707.58;651.75;;;;;;;;;;4932476;28;20349;-66
2023/05/01 11:27:15;;;;;;;715.45;657.10;;;;;;;;;;4966849;28;20090;-66
2023/05/01 11:29:43;;;;;;;718.45;659.08;;;;;;;;;;4966640;28;20114;-66
2023/05/01 11:32:08;;;;;;;714.47;657.88;;;;;;;;;;4967090;28;20062;-66
2023/05/01 11:34:34;;;;;;;711.88;649.85;;;;;;;;;;4966943;28;20506;-66
2023/05/01 11:36:59;;;;;;;719.30;658.13;;;;;;;;;;4967222;28;20090;-65
2023/05/01 11:39:25;;;;;;;705.83;645.83;;;;;;;;;;4950690;28;20387;-65
2023/05/01 11:42:05;;;;;;;708.80;649.53;;;;;;;;;;4967028;28;20033;-65
2023/05/01 11:44:30;;;;;;;;;;;;;;;;;;5036726;28;20289;-65
2023/05/01 11:46:56;;;;;;;695.38;634.70;;;;;;;;;;5049014;28;19905;-65
2023/05/01 11:49:27;;;;;;;707.35;645.88;;;;;;;;;;5048543;28;20017;-65
2023/05/01 11:51:58;;;;;;;693.63;635.10;;;;;;;;;;5048416;28;20478;-64
2023/05/01 11:54:25;;;;;;;703.85;645.00;;;;;;;;;;5048458;28;20385;-64
2023/05/01 11:56:58;;;;;;;700.70;643.65;;;;;;;;;;5048467;28;20032;-64
2023/05/01 11:59:24;;;;;;;700.28;641.10;;;;;;;;;;5048722;28;20055;-66
2023/05/01 12:01:50;;;;;;;699.85;639.30;;;;;;;;;;5048660;28;20113;-64
2023/05/01 12:04:23;;;;;;;701.38;639.28;;;;;;;;;;5029664;28;20536;-65
2023/05/01 12:06:48;;;;;;;702.25;643.58;;;;;;;;;;5046181;28;20524;-65
2023/05/01 12:09:17;;;;;;;698.07;638.60;;;;;;;;;;5048044;28;20446;-66
2023/05/01 12:11:43;;;;;;;695.33;634.35;;;;;;;;;;5030179;28;20738;-66
2023/05/01 12:14:09;;;;;;;690.67;628.53;;;;;;;;;;5048036;28;20422;-64
2023/05/01 12:16:34;;;;;;;689.83;628.83;;;;;;;;;;5048291;28;20044;-64
2023/05/01 12:19:00;;;;;;;688.28;630.35;;;;;;;;;;5046657;28;20025;-66
2023/05/01 12:21:26;;;;;;;690.60;630.58;;;;;;;;;;5051205;28;20446;-64
2023/05/01 12:23:53;;;;;;;689.65;631.13;;;;;;;;;;5031697;28;20025;-64
2023/05/01 12:26:20;;;;;;;687.78;629.80;;;;;;;;;;5032934;28;20107;-64
2023/05/01 12:28:55;;;;;;;680.65;621.42;;;;;;;;;;5051574;28;20029;-65
2023/05/01 12:31:21;;;;;;;688.40;628.97;;;;;;;;;;5051579;28;20025;-65
2023/05/01 12:33:52;;;;;;;689.42;628.95;;;;;;;;;;5050711;28;20033;-65
2023/05/01 12:36:18;;;;;;;685.70;625.60;;;;;;;;;;5051841;28;20016;-65
2023/05/01 12:38:54;;;;;;;679.22;619.47;;;;;;;;;;5051457;28;20103;-64
2023/05/01 12:41:20;;;;;;;680.15;622.75;;;;;;;;;;5050836;28;20049;-64
2023/05/01 12:43:45;;;;;;;676.90;620.03;;;;;;;;;;5050740;28;20079;-65
2023/05/01 12:46:13;;;;;;;675.83;618.17;;;;;;;;;;5051352;28;20024;-64
2023/05/01 12:48:38;;;;;;;680.50;623.50;;;;;;;;;;5050883;28;20021;-64
2023/05/01 12:51:05;;;;;;;687.33;629.90;;;;;;;;;;5050305;28;20025;-65
2023/05/01 12:53:30;;;;;;;683.55;624.55;;;;;;;;;;5051248;28;20458;-65
2023/05/01 12:55:56;;;;;;;680.65;625.85;;;;;;;;;;5051302;28;20025;-65
2023/05/01 12:58:22;;;;;;;681.97;625.35;;;;;;;;;;5051019;28;20517;-65
2023/05/01 13:00:54;;;;;;;694.63;637.65;;;;;;;;;;5050493;28;20028;-65
2023/05/01 13:03:26;;;;;;;671.70;615.85;;;;;;;;;;5050283;28;20041;-66
2023/05/01 13:05:58;;;;;;;678.92;621.30;;;;;;;;;;5051232;28;20727;-65
2023/05/01 13:08:27;;;;;;;676.78;620.55;;;;;;;;;;5051114;28;20048;-64
2023/05/01 13:10:57;;;;;;;636.05;586.42;;;;;;;;;;5050577;28;20028;-65
2023/05/01 13:13:22;;;;;;;;;;;;;;;;;;5051220;28;20064;-64
2023/05/01 13:15:47;;;;;;;613.63;568.40;;;;;;;;;;5049384;28;19944;-65
2023/05/01 13:18:12;;;;;;;624.88;578.08;;;;;;;;;;5050935;28;20021;-65
2023/05/01 13:20:38;;;;;;;629.07;580.57;;;;;;;;;;5050641;28;20044;-66
2023/05/01 13:23:08;;;;;;;613.47;568.85;;;;;;;;;;5050798;28;20662;-65
2023/05/01 13:25:34;;;;;;;537.80;501.00;;;;;;;;;;5049818;28;20092;-66
2023/05/01 13:28:00;;;;;;;626.35;578.63;;;;;;;;;;5050851;28;20028;-65
2023/05/01 13:30:32;;;;;;;584.53;543.20;;;;;;;;;;5049679;28;20029;-64
2023/05/01 13:32:58;;;;;;;618.53;572.80;;;;;;;;;;5050277;28;20033;-65
2023/05/01 13:35:24;;;;;;;598.22;554.33;;;;;;;;;;5049996;28;20519;-66
2023/05/01 13:37:50;;;;;;;610.97;565.10;;;;;;;;;;5049855;28;20087;-66
2023/05/01 13:40:17;;;;;;;572.72;531.60;;;;;;;;;;5050193;28;20032;-66
2023/05/01 13:42:42;;;;;;;594.15;547.42;;;;;;;;;;5050016;28;20032;-66
2023/05/01 13:45:07;;;;;;;572.50;531.03;;;;;;;;;;5049039;28;20020;-64
2023/05/01 13:47:35;;;;;;;612.70;564.55;;;;;;;;;;5048536;28;20668;-66
2023/05/01 13:50:00;;;;;;;615.72;568.90;;;;;;;;;;5049953;28;20017;-66
2023/05/01 13:52:25;;;;;;;617.83;568.88;;;;;;;;;;5048787;28;20033;-64
2023/05/01 13:54:51;;;;;;;598.47;553.67;;;;;;;;;;5047781;28;20355;-66
2023/05/01 13:57:17;;;;;;;631.42;580.38;;;;;;;;;;5047680;28;20281;-66
2023/05/01 13:59:43;;;;;;;634.17;580.97;;;;;;;;;;5049901;28;20466;-65
2023/05/01 14:02:19;;;;;;;640.42;587.75;;;;;;;;;;5049554;28;20242;-63
2023/05/01 14:04:45;;;;;;;646.17;593.90;;;;;;;;;;5049642;28;20032;-64
2023/05/01 14:07:12;;;;;;;647.15;594.25;;;;;;;;;;5049474;28;20024;-65
2023/05/01 14:09:38;;;;;;;632.80;582.85;;;;;;;;;;5031100;28;20032;-61
2023/05/01 14:12:04;;;;;;;633.42;584.65;;;;;;;;;;5049142;28;20037;-64
2023/05/01 14:14:29;;;;;;;630.33;581.38;;;;;;;;;;5049465;28;20033;-64